Time;durP1;ratioP1;P1;durP2;ratioP2;P2;SDS_P1;SDS_P2;PMS_P1;PMS_P2;Temp;Humidity;BMP_temperature;BMP_pressure;BME280_temperature;BME280_humidity;BME280_pressure;Samples;Min_cycle;Max_cycle;Signal;HPM_P1;HPM_P2
2023/05/27 00:00:49;;;;;;;16.60;4.20;;;;;;;10.77;51.12;100935.41;103294;1252;97820;-78
2023/05/27 00:03:29;;;;;;;15.50;4.20;;;;;;;10.73;51.36;100936.20;103363;1253;110506;-78
2023/05/27 00:05:57;;;;;;;16.70;4.20;;;;;;;10.69;51.59;100942.38;103178;1256;138087;-78
2023/05/27 00:08:27;;;;;;;13.80;3.70;;;;;;;10.65;51.73;100944.55;103292;1253;97794;-77
2023/05/27 00:10:57;;;;;;;12.30;3.90;;;;;;;10.62;51.88;100948.96;103218;1253;137988;-77
2023/05/27 00:13:32;;;;;;;17.30;4.10;;;;;;;10.60;52.17;100954.05;103333;1252;97704;-78
2023/05/27 00:16:19;;;;;;;;;;;;;;;10.56;52.31;100952.88;103288;1257;112230;-77
2023/05/27 00:18:47;;;;;;;12.30;3.80;;;;;;;10.52;52.48;100956.11;103396;1253;108494;-77
2023/05/27 00:21:17;;;;;;;9.60;3.70;;;;;;;10.48;52.61;100957.23;103232;1257;98292;-78
2023/05/27 00:23:51;;;;;;;14.90;4.20;;;;;;;10.45;52.83;100954.35;103217;1253;137849;-78
2023/05/27 00:26:21;;;;;;;17.00;4.20;;;;;;;10.43;52.88;100958.93;103376;1253;97795;-78
2023/05/27 00:28:49;;;;;;;16.90;4.60;;;;;;;10.38;53.13;100952.73;103207;1257;137938;-77
2023/05/27 00:31:19;;;;;;;13.70;4.40;;;;;;;10.34;53.04;100952.83;103364;1257;106733;-77
2023/05/27 00:33:47;;;;;;;19.10;4.90;;;;;;;10.31;53.40;100946.29;103338;1257;98312;-78
2023/05/27 00:36:14;;;;;;;12.00;4.20;;;;;;;10.27;53.40;100948.97;103251;1253;137977;-77
2023/05/27 00:38:44;;;;;;;16.20;4.50;;;;;;;10.23;53.46;100953.56;103310;1253;97794;-77
2023/05/27 00:41:15;;;;;;;17.90;4.00;;;;;;;10.19;53.68;100951.52;103322;1253;137763;-77
2023/05/27 00:43:52;;;;;;;18.40;4.20;;;;;;;10.16;53.87;100951.23;103326;1257;107420;-77
2023/05/27 00:46:20;;;;;;;19.30;4.70;;;;;;;10.12;53.99;100948.36;103395;1257;99601;-77
2023/05/27 00:48:51;;;;;;;18.70;4.80;;;;;;;10.07;54.09;100948.98;103199;1254;107487;-78
2023/05/27 00:51:18;;;;;;;20.30;4.50;;;;;;;10.02;54.28;100953.40;103309;1257;97884;-76
2023/05/27 00:53:47;;;;;;;16.00;4.40;;;;;;;9.98;54.38;100953.13;103197;1253;138568;-75
2023/05/27 00:56:17;;;;;;;11.60;4.20;;;;;;;9.95;54.50;100954.77;103327;1253;109213;-77
2023/05/27 00:58:56;;;;;;;15.50;5.10;;;;;;;9.91;54.78;100953.46;103296;1253;138889;-76
2023/05/27 01:01:25;;;;;;;13.80;4.30;;;;;;;9.86;54.93;100955.27;103329;1253;107253;-75
2023/05/27 01:03:53;;;;;;;12.50;4.20;;;;;;;9.80;54.98;100959.20;103289;1259;97861;-75
2023/05/27 01:06:49;;;;;;;18.40;5.00;;;;;;;9.74;55.08;100953.24;103336;1253;138264;-75
2023/05/27 01:09:22;;;;;;;12.70;3.70;;;;;;;9.70;55.39;100955.05;103316;1253;108265;-76
2023/05/27 01:11:57;;;;;;;20.40;4.40;;;;;;;9.67;55.49;100954.21;103088;1254;138508;-77
2023/05/27 01:14:27;;;;;;;15.10;5.00;;;;;;;9.63;55.76;100950.30;103307;1254;108015;-76
2023/05/27 01:16:58;;;;;;;11.10;4.00;;;;;;;9.61;55.87;100951.71;103138;1253;141967;-76
2023/05/27 01:19:31;;;;;;;18.10;4.40;;;;;;;9.59;56.07;100954.02;103268;1257;111468;-77
2023/05/27 01:22:14;;;;;;;16.10;4.30;;;;;;;9.55;56.33;100954.95;103275;1253;107890;-77
2023/05/27 01:24:44;;;;;;;14.90;4.40;;;;;;;9.51;56.42;100956.21;103153;1253;138493;-77
2023/05/27 01:27:16;;;;;;;16.60;4.40;;;;;;;9.47;56.61;100953.34;103258;1254;107606;-77
2023/05/27 01:29:46;;;;;;;13.90;4.60;;;;;;;9.42;56.68;100959.33;103215;1257;138285;-77
2023/05/27 01:32:18;;;;;;;12.90;4.30;;;;;;;9.39;56.94;100956.26;103204;1257;110297;-77
2023/05/27 01:34:59;;;;;;;16.10;5.00;;;;;;;9.37;57.11;100955.95;103094;1258;138521;-77
2023/05/27 01:37:30;;;;;;;16.20;4.40;;;;;;;9.34;57.21;100958.58;103700;1252;98077;-76
2023/05/27 01:40:06;;;;;;;13.30;3.90;;;;;;;9.32;57.39;100952.88;103162;1253;108005;-77
2023/05/27 01:42:38;;;;;;;13.60;3.90;;;;;;;9.26;57.46;100954.70;103187;1257;138274;-76
2023/05/27 01:45:17;;;;;;;19.10;4.60;;;;;;;9.23;57.76;100959.10;103215;1253;110456;-76
2023/05/27 01:47:46;;;;;;;13.40;4.00;;;;;;;9.21;57.92;100960.70;103192;1254;138494;-76
2023/05/27 01:50:25;;;;;;;14.90;4.10;;;;;;;9.19;58.13;100959.35;103266;1253;97739;-76
2023/05/27 01:52:55;;;;;;;14.40;4.10;;;;;;;9.16;58.31;100960.77;103154;1254;138245;-76
2023/05/27 01:55:23;;;;;;;14.80;4.30;;;;;;;9.12;58.44;100959.95;103240;1254;97679;-77
2023/05/27 01:57:50;;;;;;;9.90;4.10;;;;;;;9.07;58.51;100961.77;103286;1253;112192;-77
2023/05/27 02:00:38;;;;;;;12.80;3.80;;;;;;;9.03;58.85;100959.58;103151;1257;139831;-77
2023/05/27 02:03:08;;;;;;;15.50;3.90;;;;;;;9.00;59.02;100957.89;103335;1255;98235;-77
2023/05/27 02:05:38;;;;;;;14.40;4.00;;;;;;;8.98;59.06;100963.81;103045;1253;138358;-77
2023/05/27 02:08:06;;;;;;;14.00;4.00;;;;;;;8.97;59.20;100963.98;103260;1258;97746;-78
2023/05/27 02:10:35;;;;;;;17.00;4.20;;;;;;;8.95;59.26;100967.99;103195;1258;138359;-76
2023/05/27 02:13:02;;;;;;;15.50;4.20;;;;;;;8.93;59.50;100971.50;103152;1253;107654;-77
2023/05/27 02:15:29;;;;;;;17.20;4.40;;;;;;;8.89;59.73;100977.29;102403;1253;1002612;-76
2023/05/27 02:17:57;;;;;;;15.20;3.90;;;;;;;8.85;59.70;100977.88;103205;1253;138492;-75
2023/05/27 02:20:29;;;;;;;19.80;3.80;;;;;;;8.81;59.99;100974.63;103349;1257;97827;-76
2023/05/27 02:22:57;;;;;;;18.00;4.60;;;;;;;8.78;60.22;100979.50;103466;1252;138333;-77
2023/05/27 02:25:24;;;;;;;10.90;3.40;;;;;;;8.74;60.33;100979.38;103442;1253;107199;-75
2023/05/27 02:27:52;;;;;;;20.70;4.60;;;;;;;8.72;60.49;100979.23;103215;1256;98331;-75
2023/05/27 02:30:24;;;;;;;16.80;4.10;;;;;;;8.69;60.54;100976.17;103158;1253;138208;-75
2023/05/27 02:32:54;;;;;;;18.10;4.10;;;;;;;8.65;60.72;100981.94;103316;1253;96201;-76
2023/05/27 02:35:24;;;;;;;13.20;3.80;;;;;;;8.62;60.97;100988.92;103200;1253;138155;-78
2023/05/27 02:37:51;;;;;;;16.00;4.20;;;;;;;8.60;61.16;100989.96;103294;1253;107855;-76
2023/05/27 02:40:30;;;;;;;17.10;4.40;;;;;;;8.56;61.31;100987.77;103304;1253;97886;-76
2023/05/27 02:42:58;;;;;;;17.20;4.30;;;;;;;8.54;61.44;100987.63;103156;1254;107939;-75
2023/05/27 02:45:38;;;;;;;13.10;4.00;;;;;;;8.51;61.60;100998.40;103249;1254;97766;-76
2023/05/27 02:48:06;;;;;;;16.00;4.20;;;;;;;8.49;61.71;100997.05;103126;1254;138473;-76
2023/05/27 02:50:33;;;;;;;15.50;4.60;;;;;;;8.47;61.82;100997.58;103277;1253;107712;-76
2023/05/27 02:53:00;;;;;;;17.10;4.10;;;;;;;8.46;62.12;100995.52;103108;1254;138479;-76
2023/05/27 02:55:30;;;;;;;18.60;4.50;;;;;;;8.45;62.17;100995.52;103203;1253;107452;-76
2023/05/27 02:57:57;;;;;;;15.00;4.00;;;;;;;8.45;62.45;101000.90;103213;1253;97800;-75
2023/05/27 03:00:25;;;;;;;9.60;4.10;;;;;;;8.45;62.41;100997.43;103095;1259;138204;-75
2023/05/27 03:03:06;;;;;;;15.50;4.60;;;;;;;8.44;62.69;101000.74;103227;1254;108894;-76
2023/05/27 03:05:34;;;;;;;17.90;4.50;;;;;;;8.44;62.70;100999.35;103158;1257;137184;-76
2023/05/27 03:08:01;;;;;;;14.50;4.20;;;;;;;8.44;62.79;100997.10;103324;1253;107828;-77
2023/05/27 03:10:28;;;;;;;15.80;4.40;;;;;;;8.43;62.91;101000.39;103230;1253;99202;-76
2023/05/27 03:13:01;;;;;;;14.00;4.20;;;;;;;8.42;63.00;101009.40;103342;1257;112403;-76
2023/05/27 03:15:31;;;;;;;17.40;5.20;;;;;;;8.42;63.04;101008.19;103241;1259;108329;-76
2023/05/27 03:17:59;;;;;;;16.10;4.40;;;;;;;8.44;63.16;101007.14;103264;1256;138410;-76
2023/05/27 03:20:46;;;;;;;17.10;4.00;;;;;;;8.47;63.18;101013.02;103373;1253;107796;-76
2023/05/27 03:23:15;;;;;;;18.30;4.70;;;;;;;8.51;63.13;101010.36;103202;1253;138675;-75
2023/05/27 03:25:42;;;;;;;20.40;4.70;;;;;;;8.55;63.26;101009.10;103324;1253;111271;-76
2023/05/27 03:28:10;;;;;;;17.50;4.60;;;;;;;8.58;63.30;101011.31;103329;1257;107655;-76
2023/05/27 03:30:38;;;;;;;18.50;4.50;;;;;;;8.62;63.31;101009.70;103203;1254;138300;-78
2023/05/27 03:33:06;;;;;;;17.70;4.70;;;;;;;8.68;63.35;101008.94;103256;1254;107355;-75
2023/05/27 03:35:35;;;;;;;18.20;4.40;;;;;;;8.74;63.38;101003.83;103311;1257;138578;-75
2023/05/27 03:38:03;;;;;;;18.10;4.90;;;;;;;8.80;63.27;101007.06;103301;1253;110878;-76
2023/05/27 03:40:35;;;;;;;14.40;4.40;;;;;;;8.87;63.24;101010.95;103192;1259;138590;-76
2023/05/27 03:43:04;;;;;;;17.60;4.80;;;;;;;8.92;63.11;101008.28;103347;1258;97805;-78
2023/05/27 03:45:32;;;;;;;16.20;4.80;;;;;;;8.98;63.16;101014.11;103292;1254;107855;-77
2023/05/27 03:48:00;;;;;;;16.40;4.30;;;;;;;9.07;63.16;101015.20;103128;1253;138434;-77
2023/05/27 03:50:27;;;;;;;17.20;4.40;;;;;;;9.15;63.05;101015.61;103382;1258;110087;-77
2023/05/27 03:52:55;;;;;;;13.20;4.60;;;;;;;9.22;63.02;101016.57;103105;1253;139480;-78
2023/05/27 03:55:22;;;;;;;12.40;4.30;;;;;;;9.26;62.94;101023.42;103346;1256;98278;-77
2023/05/27 03:57:50;;;;;;;15.50;4.20;;;;;;;9.31;62.72;101021.27;103300;1253;107862;-78
2023/05/27 04:00:18;;;;;;;12.70;4.40;;;;;;;9.35;62.79;101024.87;103161;1256;138441;-78
2023/05/27 04:02:50;;;;;;;17.10;4.40;;;;;;;9.43;62.78;101029.77;103191;1253;111620;-76
2023/05/27 04:05:19;;;;;;;16.50;4.40;;;;;;;9.50;62.73;101030.37;103174;1256;138494;-76
2023/05/27 04:07:46;;;;;;;17.30;4.80;;;;;;;9.58;62.72;101037.72;103144;1253;97791;-77
2023/05/27 04:10:13;;;;;;;18.50;4.70;;;;;;;9.67;62.62;101041.73;103210;1254;106093;-76
2023/05/27 04:12:42;;;;;;;11.20;4.00;;;;;;;9.77;62.55;101044.01;103184;1257;138632;-77
2023/05/27 04:15:11;;;;;;;14.50;3.60;;;;;;;9.88;62.45;101046.63;103236;1257;111200;-78
2023/05/27 04:17:38;;;;;;;18.60;5.10;;;;;;;9.96;62.28;101048.04;103337;1257;138534;-77
2023/05/27 04:20:13;;;;;;;16.50;4.40;;;;;;;10.05;62.21;101051.88;103282;1253;97777;-77
2023/05/27 04:22:44;;;;;;;14.20;4.40;;;;;;;10.16;62.11;101048.55;103133;1254;138984;-77
2023/05/27 04:25:14;;;;;;;15.20;4.20;;;;;;;10.24;61.91;101048.44;103231;1254;97661;-77
2023/05/27 04:28:04;;;;;;;14.80;4.40;;;;;;;10.39;61.89;101052.18;103361;1257;111672;-77
2023/05/27 04:30:32;;;;;;;14.00;5.10;;;;;;;10.52;61.80;101054.70;103187;1258;139030;-77
2023/05/27 04:33:00;;;;;;;15.70;4.20;;;;;;;10.64;61.69;101059.36;103335;1253;97800;-77
2023/05/27 04:35:30;;;;;;;9.40;4.40;;;;;;;10.74;61.32;101058.80;103204;1253;138780;-77
2023/05/27 04:37:58;;;;;;;13.90;4.40;;;;;;;10.86;61.28;101059.95;103353;1253;98088;-78
2023/05/27 04:40:26;;;;;;;19.20;5.00;;;;;;;10.99;61.14;101060.05;103187;1253;111806;-78
2023/05/27 04:43:12;;;;;;;12.60;3.90;;;;;;;11.11;60.89;101054.91;104291;1253;107458;-78
2023/05/27 04:45:43;;;;;;;12.20;4.40;;;;;;;11.20;60.74;101054.88;103267;1257;97764;-78
2023/05/27 04:48:11;;;;;;;10.80;3.60;;;;;;;11.32;60.75;101057.05;103147;1253;138517;-78
2023/05/27 04:50:39;;;;;;;11.80;3.70;;;;;;;11.40;60.23;101059.66;103304;1256;97898;-78
2023/05/27 04:53:06;;;;;;;13.80;3.60;;;;;;;11.50;60.13;101058.03;103250;1254;138672;-78
2023/05/27 04:55:34;;;;;;;12.00;3.40;;;;;;;11.58;59.84;101053.50;103252;1254;107788;-78
2023/05/27 04:58:03;;;;;;;12.20;4.10;;;;;;;11.73;59.76;101053.67;103273;1257;97813;-78
2023/05/27 05:00:38;;;;;;;15.40;3.90;;;;;;;11.90;59.60;101056.77;103163;1259;139237;-78
2023/05/27 05:03:07;;;;;;;12.80;3.90;;;;;;;12.06;59.22;101060.02;103722;1257;97881;-78
2023/05/27 05:05:35;;;;;;;14.20;3.80;;;;;;;12.25;58.94;101061.47;103203;1257;138459;-78
2023/05/27 05:08:04;;;;;;;12.00;3.60;;;;;;;12.42;58.56;101057.70;103260;1253;107565;-78
2023/05/27 05:10:38;;;;;;;13.30;3.50;;;;;;;12.60;58.27;101059.30;103370;1257;97845;-78
2023/05/27 05:13:35;;;;;;;8.10;3.00;;;;;;;12.83;57.88;101061.79;103322;1253;107841;-80
2023/05/27 05:16:32;;;;;;;11.10;3.50;;;;;;;13.07;57.24;101056.21;103252;1253;97778;-79
2023/05/27 05:19:01;;;;;;;11.60;2.90;;;;;;;13.24;56.70;101062.34;103179;1253;137750;-79
2023/05/27 05:21:33;;;;;;;8.70;2.80;;;;;;;13.50;56.71;101061.74;103387;1257;107963;-79
2023/05/27 05:24:00;;;;;;;10.00;3.20;;;;;;;13.75;56.14;101058.86;103176;1254;137824;-77
2023/05/27 05:26:36;;;;;;;8.40;2.80;;;;;;;13.97;55.94;101058.27;103265;1253;107272;-80
2023/05/27 05:29:14;;;;;;;7.50;2.80;;;;;;;14.31;55.52;101056.27;103203;1259;138521;-81
2023/05/27 05:31:44;;;;;;;10.10;3.10;;;;;;;14.58;54.89;101054.64;103392;1253;109847;-81
2023/05/27 05:34:28;;;;;;;6.10;2.60;;;;;;;14.97;54.48;101051.98;103995;1253;108065;-81
2023/05/27 05:37:11;;;;;;;;;;;;;;;;;;;;;
2023/05/27 05:39:44;;;;;;;8.20;2.70;;;;;;;16.24;52.52;101046.19;103483;1253;107730;-81
2023/05/27 05:42:11;;;;;;;7.30;2.50;;;;;;;17.63;50.45;101048.79;103216;1253;138223;-81
2023/05/27 05:44:43;;;;;;;11.90;2.60;;;;;;;19.16;48.56;101046.14;103319;1254;110998;-81
2023/05/27 05:47:15;;;;;;;8.70;2.40;;;;;;;20.75;45.97;101042.89;103113;1258;138274;-79
2023/05/27 05:49:53;;;;;;;7.70;2.30;;;;;;;22.17;43.88;101040.93;103245;1253;97855;-81
2023/05/27 05:52:24;;;;;;;12.10;2.90;;;;;;;23.58;41.56;101032.38;103239;1258;111318;-81
2023/05/27 05:54:51;;;;;;;9.20;2.60;;;;;;;24.74;39.55;101032.35;103124;1259;138158;-81
2023/05/27 05:57:18;;;;;;;7.30;3.00;;;;;;;25.85;37.95;101031.14;103296;1253;111648;-80
2023/05/27 05:59:45;;;;;;;9.80;2.30;;;;;;;26.80;36.17;101030.15;103254;1253;139480;-80
2023/05/27 06:02:12;;;;;;;7.20;2.60;;;;;;;27.73;35.10;101028.77;103283;1253;97816;-80
2023/05/27 06:04:39;;;;;;;9.20;2.50;;;;;;;28.58;33.24;101031.33;103389;1253;108225;-80
2023/05/27 06:07:06;;;;;;;6.30;2.00;;;;;;;29.30;32.05;101027.81;103341;1253;98169;-80
2023/05/27 06:09:40;;;;;;;6.80;2.00;;;;;;;29.87;30.55;101029.81;103300;1254;110295;-81
2023/05/27 06:12:14;;;;;;;6.50;2.40;;;;;;;30.23;29.61;101036.51;103271;1257;137791;-81
2023/05/27 06:14:43;;;;;;;6.60;2.20;;;;;;;30.69;28.32;101028.84;103352;1253;98117;-81
2023/05/27 06:17:12;;;;;;;4.50;2.10;;;;;;;31.03;27.42;101029.03;103115;1254;138054;-82
2023/05/27 06:19:39;;;;;;;5.10;1.90;;;;;;;31.21;26.76;101032.38;103307;1258;97786;-82
2023/05/27 06:22:07;;;;;;;5.50;2.00;;;;;;;31.53;26.52;101037.70;103415;1253;110519;-82
2023/05/27 06:24:34;;;;;;;6.60;1.90;;;;;;;32.16;26.24;101040.02;103201;1253;137790;-82
2023/05/27 06:27:16;;;;;;;7.50;2.20;;;;;;;32.73;25.66;101040.80;103397;1257;97881;-82
2023/05/27 06:29:44;;;;;;;3.90;2.10;;;;;;;33.35;25.02;101039.46;103255;1253;137593;-82
2023/05/27 06:32:11;;;;;;;6.80;2.20;;;;;;;33.76;24.15;101038.09;103138;1259;97841;-80
2023/05/27 06:34:38;;;;;;;6.50;2.50;;;;;;;34.22;23.70;101048.60;103267;1253;103547;-82
2023/05/27 06:37:06;;;;;;;4.60;2.10;;;;;;;34.59;23.01;101052.23;103256;1257;139306;-83
2023/05/27 06:39:33;;;;;;;5.80;2.20;;;;;;;34.87;22.68;101056.27;103324;1254;97839;-83
2023/05/27 06:42:01;;;;;;;4.20;1.80;;;;;;;35.03;22.35;101056.07;103119;1257;138119;-83
2023/05/27 06:44:51;;;;;;;10.00;2.10;;;;;;;35.37;21.78;101052.73;103211;1253;97777;-82
2023/05/27 06:47:21;;;;;;;6.50;2.00;;;;;;;35.77;21.48;101052.08;103250;1257;138817;-84
2023/05/27 06:49:48;;;;;;;3.60;1.70;;;;;;;35.94;20.76;101053.14;103267;1258;99032;-84
2023/05/27 06:52:16;;;;;;;6.30;1.80;;;;;;;35.96;20.45;101056.71;103409;1253;97781;-85
2023/05/27 06:55:02;;;;;;;7.10;2.20;;;;;;;35.96;20.06;101053.29;103583;1256;137971;-75
2023/05/27 06:58:01;;;;;;;6.90;2.10;;;;;;;35.94;19.64;101054.02;103116;1253;97820;-82
2023/05/27 07:00:47;;;;;;;6.20;1.80;;;;;;;35.88;19.23;101053.75;103201;1253;138950;-78
2023/05/27 07:03:23;;;;;;;6.80;1.90;;;;;;;35.70;19.06;101054.27;102901;1257;342253;-78
2023/05/27 07:05:51;;;;;;;7.00;1.60;;;;;;;35.60;19.20;101057.91;103086;1254;138212;-82
2023/05/27 07:08:19;;;;;;;5.10;1.80;;;;;;;35.85;19.26;101061.05;103070;1258;99056;-81
2023/05/27 07:10:46;;;;;;;4.70;1.90;;;;;;;36.19;19.19;101064.05;103149;1253;97764;-75
2023/05/27 07:13:13;;;;;;;6.70;2.10;;;;;;;36.49;18.95;101060.77;103116;1253;103848;-88
2023/05/27 07:15:45;;;;;;;5.00;1.70;;;;;;;36.70;18.65;101062.02;103151;1257;99089;-76
2023/05/27 07:18:12;;;;;;;5.60;1.90;;;;;;;36.75;18.32;101060.67;103072;1257;138160;-81
2023/05/27 07:20:40;;;;;;;5.50;2.00;;;;;;;36.98;18.17;101060.48;103174;1259;98552;-83
2023/05/27 07:23:09;;;;;;;3.30;1.60;;;;;;;37.21;18.01;101058.77;103109;1257;140054;-82
2023/05/27 07:25:37;;;;;;;6.60;2.20;;;;;;;37.22;17.26;101058.41;103292;1257;102338;-83
2023/05/27 07:28:04;;;;;;;6.10;2.00;;;;;;;37.25;17.37;101058.39;103282;1256;99312;-84
2023/05/27 07:30:32;;;;;;;3.90;1.70;;;;;;;37.33;17.07;101057.71;103102;1253;137652;-85
2023/05/27 07:33:01;;;;;;;4.40;1.50;;;;;;;37.42;16.76;101054.17;103239;1253;100326;-85
2023/05/27 07:35:29;;;;;;;4.80;1.70;;;;;;;37.47;16.64;101055.55;103198;1253;139041;-84
2023/05/27 07:37:56;;;;;;;7.20;1.60;;;;;;;37.44;16.33;101054.14;103261;1253;104306;-82
2023/05/27 07:40:23;;;;;;;3.10;1.30;;;;;;;37.26;16.10;101055.75;103170;1258;100083;-85
2023/05/27 07:42:50;;;;;;;4.10;1.50;;;;;;;37.11;15.90;101054.55;103060;1253;137825;-76
2023/05/27 07:45:18;;;;;;;9.00;1.50;;;;;;;36.99;16.08;101052.90;103151;1254;100308;-83
2023/05/27 07:47:46;;;;;;;4.10;1.50;;;;;;;36.93;16.03;101051.92;103116;1253;137758;-81
2023/05/27 07:50:14;;;;;;;5.10;1.80;;;;;;;36.96;16.11;101052.06;103164;1259;103801;-81
2023/05/27 07:52:44;;;;;;;4.80;1.60;;;;;;;37.17;15.97;101047.70;103420;1253;100665;-82
2023/05/27 07:55:19;;;;;;;2.60;1.20;;;;;;;37.22;15.96;101046.60;103135;1253;97809;-81
2023/05/27 07:57:47;;;;;;;3.60;1.50;;;;;;;37.26;15.69;101040.71;103127;1257;100188;-81
2023/05/27 08:00:16;;;;;;;8.80;1.60;;;;;;;37.26;15.56;101039.93;103132;1253;137849;-82
2023/05/27 08:02:52;;;;;;;4.20;1.40;;;;;;;37.16;15.29;101032.85;103278;1256;111596;-86
2023/05/27 08:05:27;;;;;;;4.50;1.80;;;;;;;37.00;15.31;101035.80;103021;1259;138339;-77
2023/05/27 08:08:09;;;;;;;5.80;1.60;;;;;;;36.64;15.11;101033.65;103309;1253;98213;-81
2023/05/27 08:10:59;;;;;;;4.80;1.50;;;;;;;36.17;15.29;101035.44;103136;1257;138202;-73
2023/05/27 08:13:52;;;;;;;7.60;1.80;;;;;;;35.60;15.39;101033.08;103157;1253;97666;-82
2023/05/27 08:16:39;;;;;;;2.80;1.50;;;;;;;35.18;15.63;101031.66;103303;1259;104139;-81
2023/05/27 08:19:20;;;;;;;3.50;1.40;;;;;;;35.12;15.84;101027.64;103204;1253;99475;-80
2023/05/27 08:21:52;;;;;;;4.20;1.50;;;;;;;35.23;16.18;101023.81;103265;1257;97793;-79
2023/05/27 08:24:47;;;;;;;3.90;1.30;;;;;;;35.43;16.27;101031.80;103242;1253;137632;-80
2023/05/27 08:27:46;;;;;;;4.90;1.20;;;;;;;35.46;15.80;101033.60;103347;1259;97791;-80
2023/05/27 08:30:20;;;;;;;4.80;1.40;;;;;;;35.36;15.84;101027.86;103172;1253;137813;-80
2023/05/27 08:32:52;;;;;;;3.30;1.40;;;;;;;35.36;15.78;101025.33;103350;1259;99000;-80
2023/05/27 08:35:20;;;;;;;3.40;1.40;;;;;;;35.31;15.46;101029.05;103353;1253;137879;-79
2023/05/27 08:37:47;;;;;;;2.40;1.40;;;;;;;35.26;15.41;101030.31;103380;1253;100111;-80
2023/05/27 08:40:16;;;;;;;4.70;1.40;;;;;;;35.21;15.10;101027.66;103426;1256;97870;-80
2023/05/27 08:42:48;;;;;;;5.90;1.60;;;;;;;35.02;14.84;101026.77;103294;1253;137616;-80
2023/05/27 08:45:16;;;;;;;4.70;1.00;;;;;;;34.79;15.09;101024.52;103297;1259;108942;-80
2023/05/27 08:47:44;;;;;;;4.30;1.20;;;;;;;34.82;15.04;101024.70;103300;1257;137837;-80
2023/05/27 08:50:18;;;;;;;5.30;1.30;;;;;;;34.81;14.77;101026.02;103422;1253;99096;-80
2023/05/27 08:52:48;;;;;;;7.10;1.30;;;;;;;34.72;14.37;101025.70;103197;1259;97721;-80
2023/05/27 08:55:20;;;;;;;3.80;1.10;;;;;;;34.55;14.29;101028.59;103316;1253;102585;-80
2023/05/27 08:57:53;;;;;;;5.00;1.20;;;;;;;34.39;14.31;101024.89;103266;1259;98395;-81
2023/05/27 09:00:21;;;;;;;5.10;1.20;;;;;;;34.34;14.57;101025.13;103186;1259;137629;-80
2023/05/27 09:02:50;;;;;;;7.30;1.30;;;;;;;34.19;14.44;101020.61;103364;1259;99965;-80
2023/05/27 09:05:19;;;;;;;4.20;1.20;;;;;;;34.06;14.62;101022.80;103188;1259;139301;-80
2023/05/27 09:07:46;;;;;;;2.50;1.20;;;;;;;34.00;14.69;101022.21;103403;1253;102740;-80
2023/05/27 09:10:13;;;;;;;4.50;1.20;;;;;;;33.99;14.65;101019.68;103281;1257;100038;-80
2023/05/27 09:12:42;;;;;;;2.70;1.10;;;;;;;33.64;14.12;101019.20;103299;1253;138897;-80
2023/05/27 09:15:13;;;;;;;6.90;1.40;;;;;;;33.48;14.76;101018.06;103302;1253;107785;-80
2023/05/27 09:17:43;;;;;;;2.80;1.10;;;;;;;33.56;14.47;101015.77;103306;1257;137904;-80
2023/05/27 09:20:12;;;;;;;5.70;1.10;;;;;;;33.55;14.63;101018.95;103366;1253;103889;-80
2023/05/27 09:22:41;;;;;;;2.00;1.00;;;;;;;33.59;14.54;101014.60;103293;1257;100148;-79
2023/05/27 09:25:10;;;;;;;3.10;1.00;;;;;;;33.57;14.23;101015.36;103272;1257;137582;-80
2023/05/27 09:27:43;;;;;;;5.90;1.20;;;;;;;33.41;14.39;101020.85;103467;1259;100287;-80
2023/05/27 09:30:12;;;;;;;2.70;1.10;;;;;;;33.12;14.14;101018.47;103216;1256;137757;-80
2023/05/27 09:32:39;;;;;;;5.70;1.30;;;;;;;32.86;14.13;101021.70;104226;1256;104024;-79
2023/05/27 09:35:08;;;;;;;4.60;1.10;;;;;;;32.77;14.35;101019.04;103218;1253;138446;-80
2023/05/27 09:37:36;;;;;;;3.00;1.10;;;;;;;32.79;14.48;101020.45;103444;1253;97797;-81
2023/05/27 09:40:08;;;;;;;2.80;0.80;;;;;;;32.94;14.25;101015.60;103302;1253;99032;-81
2023/05/27 09:42:43;;;;;;;7.90;1.50;;;;;;;32.82;14.13;101015.11;103316;1256;137744;-81
2023/05/27 09:45:14;;;;;;;2.80;1.00;;;;;;;32.72;14.63;101021.39;103345;1253;110757;-81
2023/05/27 09:47:42;;;;;;;6.10;1.10;;;;;;;32.58;14.24;101023.05;103261;1253;137871;-81
2023/05/27 09:50:14;;;;;;;5.90;1.50;;;;;;;32.40;14.14;101023.03;103434;1253;97740;-81
2023/05/27 09:52:41;;;;;;;5.50;1.20;;;;;;;32.22;14.26;101017.04;103340;1253;107469;-81
2023/05/27 09:55:15;;;;;;;2.60;1.00;;;;;;;32.24;14.65;101019.27;103179;1253;138185;-81
2023/05/27 09:57:42;;;;;;;2.50;1.10;;;;;;;32.32;14.67;101015.73;103346;1254;112340;-81
2023/05/27 10:00:12;;;;;;;2.80;1.10;;;;;;;32.44;14.66;101011.98;103281;1253;137903;-81
2023/05/27 10:02:40;;;;;;;4.20;1.30;;;;;;;32.39;14.64;101014.29;103409;1257;97781;-81
2023/05/27 10:05:12;;;;;;;3.20;1.40;;;;;;;32.34;14.58;101014.58;103252;1253;137807;-80
2023/05/27 10:07:42;;;;;;;5.30;1.40;;;;;;;32.14;14.07;101021.59;103297;1253;97883;-80
2023/05/27 10:10:29;;;;;;;1.70;1.20;;;;;;;31.85;14.38;101020.77;103382;1258;110559;-81
2023/05/27 10:12:58;;;;;;;4.00;1.30;;;;;;;31.48;14.43;101024.72;103224;1259;137812;-81
2023/05/27 10:15:27;;;;;;;3.20;1.10;;;;;;;31.32;14.87;101025.41;103319;1257;97677;-80
2023/05/27 10:17:57;;;;;;;3.60;1.30;;;;;;;31.36;14.91;101026.25;103582;1253;137606;-81
2023/05/27 10:20:32;;;;;;;2.20;1.40;;;;;;;31.28;14.95;101023.69;103302;1257;96698;-80
2023/05/27 10:23:12;;;;;;;2.60;1.20;;;;;;;31.31;14.87;101023.61;103281;1257;137927;-80
2023/05/27 10:25:39;;;;;;;2.80;1.10;;;;;;;31.26;15.10;101021.92;103683;1258;107234;-81
2023/05/27 10:28:07;;;;;;;6.00;1.20;;;;;;;31.13;15.30;101023.84;103383;1256;97807;-80
2023/05/27 10:30:45;;;;;;;2.20;1.20;;;;;;;31.03;14.84;101028.55;103221;1257;137580;-80
2023/05/27 10:33:13;;;;;;;4.10;1.30;;;;;;;30.80;14.71;101034.59;103414;1253;97817;-80
2023/05/27 10:35:45;;;;;;;3.40;1.20;;;;;;;30.71;14.70;101033.74;103510;1256;137538;-80
2023/05/27 10:38:19;;;;;;;2.50;1.20;;;;;;;30.68;14.60;101037.36;103330;1256;107681;-80
2023/05/27 10:40:47;;;;;;;2.90;1.50;;;;;;;30.47;14.74;101033.64;103353;1253;97768;-80
2023/05/27 10:43:20;;;;;;;3.30;1.30;;;;;;;30.29;14.50;101029.09;103608;1254;107702;-80
2023/05/27 10:45:48;;;;;;;3.30;1.20;;;;;;;29.96;14.75;101026.30;103421;1253;97790;-79
2023/05/27 10:48:29;;;;;;;5.90;1.10;;;;;;;29.70;15.07;101020.56;103315;1254;137726;-79
2023/05/27 10:51:00;;;;;;;4.90;1.30;;;;;;;29.47;15.40;101016.40;103363;1257;107636;-80
2023/05/27 10:53:28;;;;;;;2.70;1.20;;;;;;;29.17;15.59;101017.42;103241;1253;138274;-80
2023/05/27 10:55:58;;;;;;;2.20;1.10;;;;;;;28.87;15.58;101021.38;103366;1254;108692;-80
2023/05/27 10:58:26;;;;;;;3.00;1.30;;;;;;;28.59;16.11;101026.42;103315;1259;97785;-80
2023/05/27 11:00:55;;;;;;;3.80;1.80;;;;;;;28.38;15.89;101026.34;103226;1253;137661;-80
2023/05/27 11:03:24;;;;;;;4.90;1.20;;;;;;;28.07;15.73;101024.77;103347;1259;107864;-80
2023/05/27 11:06:00;;;;;;;2.70;1.20;;;;;;;27.87;16.05;101024.14;103336;1254;137931;-79
2023/05/27 11:08:27;;;;;;;2.50;1.20;;;;;;;27.61;16.25;101023.98;103271;1257;107610;-79
2023/05/27 11:11:00;;;;;;;2.50;1.40;;;;;;;27.40;16.15;101031.11;103363;1254;97708;-80
2023/05/27 11:13:36;;;;;;;2.00;1.40;;;;;;;27.20;15.97;101029.30;103369;1254;111410;-80
2023/05/27 11:16:05;;;;;;;4.40;1.20;;;;;;;26.94;16.30;101028.55;103416;1259;107715;-80
2023/05/27 11:18:43;;;;;;;5.10;1.30;;;;;;;26.68;16.55;101033.03;103299;1259;138290;-80
2023/05/27 11:21:12;;;;;;;3.90;1.40;;;;;;;26.58;16.95;101031.08;103377;1253;108999;-80
2023/05/27 11:23:42;;;;;;;3.30;1.30;;;;;;;26.45;17.11;101034.81;103243;1253;137955;-80
2023/05/27 11:26:17;;;;;;;2.50;1.10;;;;;;;26.44;17.03;101035.66;103320;1257;111228;-77
2023/05/27 11:28:51;;;;;;;4.10;1.00;;;;;;;26.35;17.01;101026.92;103393;1254;108753;-78
2023/05/27 11:31:20;;;;;;;2.10;1.30;;;;;;;26.24;16.69;101020.06;103347;1260;137665;-78